HELX  Luxor International Airport

Add Bookmark

Luxor, Egypt

Status IATA
Operational LXR
Latitude Longitude
25° 40' 15" N 32° 42' 23" E
25.671000 32.706600
Local (DST + 2) UTC (GMT + 2)
Oct 31, 2014 11:44 Oct 31, 2014 09:44
Sunrise-Sunset Local UTC
Begin Civil Twilight 05:32 03:32
Sunrise 05:55 03:55
Sunset 05:09 15:09
End Civil Twilight 05:33 15:33

Current Weather

METAR Observed VFR
HELX 310800Z 36004KT CAVOK 25/12 Q1016 NOSIG Fri, Oct 31, 2014 @ 08:00 UTC
(1 Hour, 44 Minutes ago)
Visual Flight Rules
Wind Visibility Clouds Conditions
360° at 4 knots (7 kph) 10 km or more
  • Clear skies
  • No significant weather
Temperatures Readings Precipitation
Current Temp 25°C (77°F)
Dewpoint 12°C (54°F)
Humidity 44%
Altimeter 30"Hg
Sea Level Pressure 1016mb
Field Elevation 288.71'
None Recorded

Forecast Weather

TAF
TAF HELX 310500Z 3106/0112 34010KT CAVOK
From To
Fri, Oct 31, 2014 @ 06:00 UTC Sat, Nov 1, 2014 @ 12:00 UTC
Wind Visibility Conditions
340° at 10 knots (19 kph) 10 km or more
  • No significant weather

24 Hour Weather History

Loading
-

24 Hour Weather Graphs

Loading
-

CheckWX.com is intended as a tool to help pilots better visualize weather data. It is not intended as a substitute for an official weather briefing obtained from a Flight Service Station. CheckWX.com does not meet the FAA requirements for an official pre-flight weather briefing. Therefore, it's important that pilots still call and obtain an official FSS pre-flight weather briefing.